Time;durP1;ratioP1;P1;durP2;ratioP2;P2;SDS_P1;SDS_P2;PMS_P1;PMS_P2;Temp;Humidity;BMP_temperature;BMP_pressure;BME280_temperature;BME280_humidity;BME280_pressure;Samples;Min_cycle;Max_cycle;Signal;HPM_P1;HPM_P2
2023/10/08 00:01:19;;;;;;;28.00;7.22;;;18.80;99.90;;;;;;5047550;28;20029;-76
2023/10/08 00:03:50;;;;;;;20.23;6.93;;;18.80;99.90;;;;;;5049652;28;20025;-76
2023/10/08 00:06:19;;;;;;;26.60;7.65;;;18.80;99.90;;;;;;5050006;28;20021;-76
2023/10/08 00:08:45;;;;;;;29.05;7.65;;;18.80;99.90;;;;;;5050085;28;20028;-76
2023/10/08 00:11:11;;;;;;;23.27;7.18;;;18.70;99.90;;;;;;5049496;28;20025;-76
2023/10/08 00:13:39;;;;;;;26.77;7.53;;;18.70;99.90;;;;;;5048381;28;20009;-76
2023/10/08 00:16:16;;;;;;;24.38;7.65;;;18.70;99.90;;;;;;5049734;28;20128;-76
2023/10/08 00:18:48;;;;;;;30.98;7.80;;;18.70;99.90;;;;;;5048190;28;20381;-76
2023/10/08 00:21:27;;;;;;;21.85;7.55;;;18.70;99.90;;;;;;5046789;28;20025;-76
2023/10/08 00:23:59;;;;;;;24.00;7.50;;;18.70;99.90;;;;;;5049045;28;20032;-76
2023/10/08 00:26:31;;;;;;;22.92;7.50;;;18.60;99.90;;;;;;5039211;28;20138;-76
2023/10/08 00:29:26;;;;;;;28.90;8.13;;;18.60;99.90;;;;;;5050031;28;20028;-76
2023/10/08 00:31:50;;;;;;;27.67;7.32;;;18.60;99.90;;;;;;5047206;28;20402;-76
2023/10/08 00:34:19;;;;;;;23.67;7.13;;;18.60;99.90;;;;;;5049844;28;20021;-76
2023/10/08 00:36:47;;;;;;;23.48;7.47;;;18.50;99.90;;;;;;5044395;28;20642;-76
2023/10/08 00:39:14;;;;;;;28.60;8.35;;;18.50;99.90;;;;;;5049210;28;20046;-76
2023/10/08 00:41:44;;;;;;;28.02;8.45;;;18.50;99.90;;;;;;5049291;28;20033;-76
2023/10/08 00:44:47;;;;;;;28.85;8.48;;;18.50;99.90;;;;;;5039089;28;20028;-76
2023/10/08 00:47:05;;;;;;;30.50;8.02;;;18.50;99.90;;;;;;5047374;28;20037;-76
2023/10/08 00:57:21;;;;;;;25.70;7.70;;;18.40;99.90;;;;;;5045438;28;20029;-76
2023/10/08 00:59:52;;;;;;;24.65;8.10;;;18.40;99.90;;;;;;5039107;28;20056;-76
2023/10/08 01:02:26;;;;;;;30.75;8.15;;;18.40;99.90;;;;;;5050113;28;20478;-76
2023/10/08 01:04:54;;;;;;;28.67;7.85;;;18.40;99.90;;;;;;5051270;28;20021;-76
2023/10/08 01:07:20;;;;;;;23.42;7.10;;;18.40;99.90;;;;;;5049401;28;20524;-76
2023/10/08 01:09:50;;;;;;;27.13;7.78;;;18.40;99.90;;;;;;5053107;28;20024;-76
2023/10/08 01:12:33;;;;;;;26.30;7.43;;;18.40;99.90;;;;;;5052846;28;20362;-75
2023/10/08 01:15:13;;;;;;;23.95;7.85;;;18.40;99.90;;;;;;5053094;28;20013;-76
2023/10/08 01:17:47;;;;;;;28.75;8.27;;;18.30;99.90;;;;;;5052976;28;20040;-76
2023/10/08 01:20:33;;;;;;;26.40;7.93;;;18.40;99.90;;;;;;5041814;28;20059;-75
2023/10/08 01:23:09;;;;;;;24.80;7.55;;;18.30;99.90;;;;;;5053080;28;20305;-75
2023/10/08 01:25:42;;;;;;;25.90;8.43;;;18.30;99.90;;;;;;5057488;28;20041;-75
2023/10/08 01:28:14;;;;;;;29.30;8.88;;;18.30;99.90;;;;;;5053504;28;20021;-75
2023/10/08 01:30:46;;;;;;;25.13;7.53;;;18.30;99.90;;;;;;5047936;28;20365;-75
2023/10/08 01:33:14;;;;;;;23.80;7.38;;;18.30;99.90;;;;;;5052082;28;20029;-76
2023/10/08 01:35:40;;;;;;;24.15;8.18;;;18.30;99.90;;;;;;5052948;28;20085;-75
2023/10/08 01:38:07;;;;;;;25.95;8.35;;;18.30;99.90;;;;;;5052173;28;20017;-76
2023/10/08 01:40:33;;;;;;;25.77;8.55;;;18.30;99.90;;;;;;5053050;28;20033;-76
2023/10/08 01:43:04;;;;;;;29.75;7.97;;;18.30;99.90;;;;;;5046657;28;20512;-76
2023/10/08 01:45:31;;;;;;;24.90;8.35;;;18.20;99.90;;;;;;5052575;28;20052;-76
2023/10/08 01:47:57;;;;;;;25.92;8.85;;;18.30;99.90;;;;;;5043071;28;20024;-76
2023/10/08 01:50:29;;;;;;;24.88;8.35;;;18.20;99.90;;;;;;5051807;28;20029;-76
2023/10/08 01:52:55;;;;;;;29.85;8.07;;;18.20;99.90;;;;;;5045220;28;20017;-76
2023/10/08 01:55:22;;;;;;;25.40;7.97;;;18.20;99.90;;;;;;5051877;28;20492;-76
2023/10/08 01:57:49;;;;;;;28.65;8.48;;;18.20;99.90;;;;;;5052922;28;20020;-75
2023/10/08 02:00:22;;;;;;;27.08;8.25;;;18.20;99.90;;;;;;5052358;28;20029;-76
2023/10/08 02:02:51;;;;;;;30.02;9.10;;;18.20;99.90;;;;;;5052040;28;20017;-76
2023/10/08 02:05:18;;;;;;;30.13;8.35;;;18.20;99.90;;;;;;5052189;28;20446;-76
2023/10/08 02:07:45;;;;;;;23.73;8.68;;;18.20;99.90;;;;;;5051900;28;20017;-76
2023/10/08 02:10:11;;;;;;;28.60;8.77;;;18.20;99.90;;;;;;5047198;28;20033;-76
2023/10/08 02:12:40;;;;;;;27.15;9.05;;;18.20;99.90;;;;;;5045779;28;20063;-76
2023/10/08 02:15:07;;;;;;;21.13;8.38;;;18.20;99.90;;;;;;5052022;28;20488;-76
2023/10/08 02:17:33;;;;;;;24.75;8.85;;;18.20;99.90;;;;;;5047119;28;20018;-76
2023/10/08 02:19:58;;;;;;;32.45;9.48;;;18.20;99.90;;;;;;5051897;28;20028;-76
2023/10/08 02:22:24;;;;;;;29.35;8.75;;;18.30;99.90;;;;;;5048160;28;20389;-76
2023/10/08 02:24:50;;;;;;;23.33;8.55;;;18.20;99.90;;;;;;5051427;28;20029;-75
2023/10/08 02:27:16;;;;;;;26.95;8.52;;;18.20;99.90;;;;;;5051816;28;20017;-76
2023/10/08 02:29:42;;;;;;;22.48;8.32;;;18.20;99.90;;;;;;5050999;28;20124;-76
2023/10/08 02:32:08;;;;;;;26.73;8.45;;;18.20;99.90;;;;;;5051748;28;20108;-76
2023/10/08 02:34:35;;;;;;;26.13;8.52;;;18.20;99.90;;;;;;5051296;28;20017;-76
2023/10/08 02:37:03;;;;;;;23.60;8.48;;;18.20;99.90;;;;;;5052155;28;20115;-76
2023/10/08 02:39:30;;;;;;;28.55;9.00;;;18.10;99.90;;;;;;5051464;28;20111;-76
2023/10/08 02:41:59;;;;;;;22.40;8.88;;;18.20;99.90;;;;;;5050086;28;20376;-76
2023/10/08 02:44:25;;;;;;;28.27;8.93;;;18.10;99.90;;;;;;5051812;28;20028;-75
2023/10/08 02:46:51;;;;;;;24.98;8.38;;;18.10;99.90;;;;;;5047468;28;20491;-76
2023/10/08 02:49:25;;;;;;;23.55;8.18;;;18.00;99.90;;;;;;5049431;28;20087;-75
2023/10/08 02:51:53;;;;;;;29.85;8.90;;;18.00;99.90;;;;;;5051022;28;20053;-75
2023/10/08 02:54:22;;;;;;;27.67;9.30;;;18.00;99.90;;;;;;5051006;28;20028;-76
2023/10/08 02:56:52;;;;;;;27.58;10.32;;;18.00;99.90;;;;;;5049761;28;20373;-76
2023/10/08 02:59:24;;;;;;;24.95;8.77;;;18.00;99.90;;;;;;5050989;28;20040;-75
2023/10/08 03:01:52;;;;;;;21.65;8.95;;;18.00;99.90;;;;;;5051035;28;20025;-75
2023/10/08 03:04:18;;;;;;;26.23;9.98;;;18.00;99.90;;;;;;5050531;28;20064;-75
2023/10/08 03:06:50;;;;;;;30.27;9.65;;;17.90;99.90;;;;;;5047557;28;20020;-75
2023/10/08 03:09:21;;;;;;;28.23;9.15;;;17.90;99.90;;;;;;5044747;28;20482;-75
2023/10/08 03:11:48;;;;;;;26.15;9.20;;;17.90;99.90;;;;;;5040958;28;20052;-75
2023/10/08 03:14:23;;;;;;;23.58;9.18;;;17.90;99.90;;;;;;5040378;28;20420;-76
2023/10/08 03:16:53;;;;;;;26.33;7.85;;;17.90;99.90;;;;;;5051342;28;20025;-75
2023/10/08 03:19:21;;;;;;;31.60;9.30;;;17.80;99.90;;;;;;5044710;28;20053;-76
2023/10/08 03:21:50;;;;;;;24.80;8.60;;;17.80;99.90;;;;;;5041827;28;20078;-76
2023/10/08 03:27:12;;;;;;;24.73;8.75;;;17.80;99.90;;;;;;5050601;28;20388;-76
2023/10/08 03:29:41;;;;;;;23.77;8.85;;;17.80;99.90;;;;;;5050439;28;20473;-75
2023/10/08 03:32:17;;;;;;;29.67;9.05;;;17.70;99.90;;;;;;5050385;28;20477;-76
2023/10/08 03:34:50;;;;;;;22.50;9.07;;;17.70;99.90;;;;;;5049846;28;20017;-76
2023/10/08 03:37:20;;;;;;;25.95;9.25;;;17.70;99.90;;;;;;5050575;28;20075;-76
2023/10/08 03:40:51;;;;;;;25.05;8.90;;;17.70;99.90;;;;;;5049273;28;20025;-75
2023/10/08 03:42:49;;;;;;;23.73;8.77;;;17.70;99.90;;;;;;5039118;28;20128;-76
2023/10/08 03:45:22;;;;;;;23.48;9.07;;;17.60;99.90;;;;;;5049056;28;20358;-75
2023/10/08 03:48:03;;;;;;;23.95;8.95;;;17.60;99.90;;;;;;5038685;28;20017;-76
2023/10/08 03:50:32;;;;;;;23.80;9.23;;;17.60;99.90;;;;;;5049960;28;20032;-76
2023/10/08 03:52:58;;;;;;;19.50;8.65;;;17.50;99.90;;;;;;5051082;28;20036;-75
2023/10/08 03:55:27;;;;;;;24.30;8.98;;;17.50;99.90;;;;;;5049874;28;20056;-76
2023/10/08 03:58:03;;;;;;;23.25;8.68;;;17.50;99.90;;;;;;5050576;28;20013;-75
2023/10/08 04:00:31;;;;;;;21.88;8.60;;;17.50;99.90;;;;;;5046501;28;20048;-76
2023/10/08 04:03:01;;;;;;;20.92;8.55;;;17.40;99.90;;;;;;5043038;28;20013;-76
2023/10/08 04:05:44;;;;;;;25.75;9.40;;;17.40;99.90;;;;;;5049531;28;20062;-76
2023/10/08 04:08:42;;;;;;;25.63;9.35;;;17.40;99.90;;;;;;5049589;28;20031;-76
2023/10/08 04:11:32;;;;;;;23.50;8.60;;;17.40;99.90;;;;;;5042460;28;20037;-75
2023/10/08 04:13:59;;;;;;;27.80;10.27;;;17.40;99.90;;;;;;5047274;28;20385;-75
2023/10/08 04:16:27;;;;;;;28.70;10.23;;;17.40;99.90;;;;;;5049986;28;20430;-76
2023/10/08 04:18:55;;;;;;;28.13;10.38;;;17.40;99.90;;;;;;5045576;28;20104;-75
2023/10/08 04:21:22;;;;;;;31.55;10.30;;;17.40;99.90;;;;;;5050026;28;20024;-75
2023/10/08 04:23:51;;;;;;;30.30;10.23;;;17.40;99.90;;;;;;5049822;28;20028;-75
2023/10/08 04:26:23;;;;;;;32.40;10.80;;;17.40;99.90;;;;;;5045707;28;20022;-75
2023/10/08 04:29:02;;;;;;;29.70;10.23;;;17.40;99.90;;;;;;5048874;28;20832;-75
2023/10/08 04:31:38;;;;;;;32.30;10.32;;;17.40;99.90;;;;;;5047185;28;20025;-75
2023/10/08 04:34:16;;;;;;;32.03;10.48;;;17.40;99.90;;;;;;5042998;28;20021;-75
2023/10/08 04:36:46;;;;;;;32.53;10.43;;;17.30;99.90;;;;;;5045379;28;20025;-75
2023/10/08 04:39:14;;;;;;;31.30;10.75;;;17.30;99.90;;;;;;5045224;28;20021;-75
2023/10/08 04:41:43;;;;;;;26.10;10.55;;;17.30;99.90;;;;;;5048724;28;20025;-75
2023/10/08 04:44:16;;;;;;;28.15;10.38;;;17.30;99.90;;;;;;5047761;28;20025;-75
2023/10/08 04:49:23;;;;;;;29.35;10.60;;;17.30;99.90;;;;;;5039339;28;20033;-75
2023/10/08 04:51:48;;;;;;;29.02;10.20;;;17.30;99.90;;;;;;5048662;28;20056;-75
2023/10/08 04:54:18;;;;;;;28.33;10.45;;;17.20;99.90;;;;;;5049547;28;20021;-76
2023/10/08 04:56:44;;;;;;;29.77;10.75;;;17.20;99.90;;;;;;5048639;28;20100;-76
2023/10/08 04:59:13;;;;;;;30.17;10.63;;;17.20;99.90;;;;;;5049339;28;20039;-76
2023/10/08 05:01:47;;;;;;;30.35;10.15;;;17.20;99.90;;;;;;5046303;28;20140;-76
2023/10/08 05:04:26;;;;;;;28.58;10.23;;;17.20;99.90;;;;;;5045912;28;20033;-76
2023/10/08 05:07:17;;;;;;;25.20;9.60;;;17.10;99.90;;;;;;5049080;28;20020;-75
2023/10/08 05:18:51;;;;;;;27.02;9.77;;;17.10;99.90;;;;;;5048411;28;20029;-76
2023/10/08 05:23:20;;;;;;;28.83;10.55;;;17.00;99.90;;;;;;5046315;28;20436;-75
2023/10/08 05:26:30;;;;;;;31.08;10.93;;;17.00;99.90;;;;;;5049337;28;20397;-76
2023/10/08 05:29:39;;;;;;;33.00;10.77;;;17.00;99.90;;;;;;5046887;28;20029;-76
2023/10/08 05:31:52;;;;;;;31.02;10.57;;;17.00;99.90;;;;;;5048055;28;20036;-76
2023/10/08 05:34:32;;;;;;;29.00;10.68;;;16.90;99.90;;;;;;5049849;28;20017;-76
2023/10/08 05:39:40;;;;;;;30.00;10.20;;;16.90;99.90;;;;;;5048684;28;20033;-76
2023/10/08 05:42:31;;;;;;;30.80;10.07;;;16.90;99.90;;;;;;5049432;28;20033;-76
2023/10/08 05:52:53;;;;;;;28.13;10.68;;;16.80;99.90;;;;;;5052290;28;20087;-75
2023/10/08 05:55:25;;;;;;;35.33;12.25;;;16.80;99.90;;;;;;5042937;28;20066;-75
2023/10/08 06:03:35;;;;;;;30.88;9.10;;;16.80;99.90;;;;;;5052755;28;20481;-76
2023/10/08 06:11:44;;;;;;;36.67;10.38;;;16.70;99.90;;;;;;5045015;28;20078;-76
2023/10/08 06:14:16;;;;;;;43.08;10.25;;;16.70;99.90;;;;;;5044863;28;20033;-76
2023/10/08 06:16:46;;;;;;;44.30;11.15;;;16.60;99.90;;;;;;5035680;28;20031;-76
2023/10/08 06:19:13;;;;;;;42.00;10.98;;;16.60;99.90;;;;;;5046854;28;20079;-76
2023/10/08 06:21:41;;;;;;;46.45;12.05;;;16.60;99.90;;;;;;5052035;28;20028;-76
2023/10/08 06:24:09;;;;;;;44.92;10.65;;;16.60;99.90;;;;;;5051738;28;20032;-76
2023/10/08 06:26:48;;;;;;;37.80;9.52;;;16.60;99.90;;;;;;5051930;28;20018;-75
2023/10/08 06:29:27;;;;;;;41.45;9.35;;;16.60;99.90;;;;;;5039249;28;20025;-76
2023/10/08 06:31:55;;;;;;;36.50;9.45;;;16.60;99.90;;;;;;5043843;28;20031;-75
2023/10/08 06:34:22;;;;;;;44.22;10.05;;;16.60;99.90;;;;;;5051609;28;20021;-75
2023/10/08 06:36:53;;;;;;;33.92;8.50;;;16.60;99.90;;;;;;5047775;28;20021;-75
2023/10/08 06:39:25;;;;;;;37.10;8.30;;;16.60;99.90;;;;;;5041826;28;20485;-76
2023/10/08 06:41:53;;;;;;;27.48;6.75;;;16.60;99.90;;;;;;5051297;28;20108;-76
2023/10/08 06:44:19;;;;;;;23.83;6.72;;;16.50;99.90;;;;;;5051781;28;20033;-75
2023/10/08 06:46:45;;;;;;;22.13;6.45;;;16.50;99.90;;;;;;5050147;28;20108;-76
2023/10/08 06:49:11;;;;;;;21.33;7.03;;;16.50;99.90;;;;;;5051056;28;20017;-75
2023/10/08 06:51:44;;;;;;;17.85;6.22;;;16.40;99.90;;;;;;5049218;28;20056;-75
2023/10/08 06:54:13;;;;;;;21.35;6.97;;;16.40;99.90;;;;;;5047855;28;20048;-76
2023/10/08 06:56:45;;;;;;;20.85;7.40;;;16.40;99.90;;;;;;5034146;28;20470;-75
2023/10/08 06:59:11;;;;;;;21.50;7.25;;;16.40;99.90;;;;;;5050086;28;20544;-76
2023/10/08 07:01:40;;;;;;;21.90;8.43;;;16.50;99.90;;;;;;5064746;28;20029;-76
2023/10/08 07:04:11;;;;;;;24.90;7.57;;;16.50;99.90;;;;;;5050875;28;20413;-75
2023/10/08 07:06:40;;;;;;;26.65;9.13;;;16.50;99.90;;;;;;5050872;28;20469;-75
2023/10/08 07:09:43;;;;;;;24.60;9.38;;;16.50;99.90;;;;;;5049660;28;20398;-75
2023/10/08 07:12:06;;;;;;;37.33;9.93;;;16.50;99.90;;;;;;5046341;28;20048;-76
2023/10/08 07:14:31;;;;;;;32.60;9.18;;;16.50;99.90;;;;;;5050146;28;20052;-76
2023/10/08 07:17:00;;;;;;;27.15;9.02;;;16.50;99.90;;;;;;5050891;28;20025;-76
2023/10/08 07:19:37;;;;;;;34.45;9.80;;;16.50;99.90;;;;;;5049707;28;20108;-75
2023/10/08 07:22:06;;;;;;;34.08;9.82;;;16.50;99.90;;;;;;5044314;28;20116;-75
2023/10/08 07:24:34;;;;;;;33.88;9.80;;;16.50;99.90;;;;;;5049733;28;20036;-75
2023/10/08 07:27:05;;;;;;;33.97;10.27;;;16.40;99.90;;;;;;5046208;28;20025;-76
2023/10/08 07:29:32;;;;;;;36.85;10.77;;;16.40;99.90;;;;;;5050516;28;20123;-75
2023/10/08 07:32:09;;;;;;;37.20;10.82;;;16.40;99.90;;;;;;5050548;28;20044;-75
2023/10/08 07:34:36;;;;;;;34.80;9.77;;;16.30;99.90;;;;;;5050519;28;20028;-75
2023/10/08 07:37:02;;;;;;;32.45;10.07;;;16.30;99.90;;;;;;5050396;28;20048;-75
2023/10/08 07:41:56;;;;;;;29.33;9.25;;;16.20;99.90;;;;;;5045167;28;20025;-75
2023/10/08 07:44:23;;;;;;;28.38;9.13;;;16.20;99.90;;;;;;5043029;28;20597;-75
2023/10/08 07:46:55;;;;;;;39.92;8.90;;;16.20;99.90;;;;;;5039573;28;20018;-75
2023/10/08 07:49:23;;;;;;;28.63;8.68;;;16.20;99.90;;;;;;5048658;28;20035;-75
2023/10/08 07:51:52;;;;;;;25.58;7.95;;;16.20;99.90;;;;;;5050076;28;20199;-75
2023/10/08 07:54:20;;;;;;;26.92;8.25;;;16.20;99.90;;;;;;5049971;28;20021;-75
2023/10/08 07:56:47;;;;;;;31.27;7.88;;;16.10;99.90;;;;;;5048517;28;20028;-75
2023/10/08 07:59:14;;;;;;;28.63;7.70;;;16.10;99.90;;;;;;5049906;28;20041;-76
2023/10/08 08:01:42;;;;;;;21.20;7.18;;;16.10;99.90;;;;;;5045158;28;20029;-75
2023/10/08 08:04:21;;;;;;;31.63;7.32;;;16.10;99.90;;;;;;5045004;28;20078;-75
2023/10/08 08:06:49;;;;;;;25.00;7.30;;;16.20;99.90;;;;;;5048695;28;20552;-75
2023/10/08 08:09:23;;;;;;;25.77;7.07;;;16.20;99.90;;;;;;5046280;28;20098;-75
2023/10/08 08:11:49;;;;;;;21.63;6.65;;;16.30;99.90;;;;;;5050105;28;20446;-75
2023/10/08 08:14:24;;;;;;;22.85;7.35;;;16.30;99.90;;;;;;5049256;28;20031;-75
2023/10/08 08:16:49;;;;;;;19.42;6.50;;;16.30;99.90;;;;;;5043078;28;20064;-76
2023/10/08 08:19:16;;;;;;;26.73;7.15;;;16.40;99.90;;;;;;5049714;28;20118;-75
2023/10/08 08:21:47;;;;;;;22.52;6.78;;;16.40;99.90;;;;;;5049552;28;20050;-76
2023/10/08 08:24:13;;;;;;;24.90;6.35;;;16.40;99.90;;;;;;5049308;28;20036;-76
2023/10/08 08:26:40;;;;;;;23.13;6.63;;;16.40;99.90;;;;;;5048996;28;20024;-75
2023/10/08 08:29:15;;;;;;;22.30;6.90;;;16.50;99.90;;;;;;5048752;28;20021;-75
2023/10/08 08:31:46;;;;;;;20.13;6.85;;;16.50;99.90;;;;;;5047339;28;20017;-75
2023/10/08 08:34:17;;;;;;;18.90;6.00;;;16.60;99.90;;;;;;5047136;28;20381;-76
2023/10/08 08:36:46;;;;;;;19.95;6.72;;;16.60;99.90;;;;;;5049801;28;20516;-75
2023/10/08 08:39:28;;;;;;;16.52;5.78;;;16.60;99.90;;;;;;5049551;28;20469;-75
2023/10/08 08:41:59;;;;;;;21.35;6.60;;;16.70;99.90;;;;;;5049397;28;20028;-75
2023/10/08 08:44:29;;;;;;;16.95;6.55;;;16.70;99.90;;;;;;5048530;28;20125;-75
2023/10/08 08:46:58;;;;;;;16.05;6.57;;;16.70;99.90;;;;;;5049027;28;20429;-75
2023/10/08 08:49:25;;;;;;;14.77;6.13;;;16.70;99.90;;;;;;5050142;28;20025;-75
2023/10/08 08:51:55;;;;;;;18.00;6.72;;;16.70;99.90;;;;;;5050829;28;20485;-75
2023/10/08 08:54:21;;;;;;;21.25;6.38;;;16.80;99.90;;;;;;5050444;28;20021;-75
2023/10/08 08:56:47;;;;;;;20.27;7.10;;;16.80;99.90;;;;;;5050103;28;20052;-75
2023/10/08 08:59:14;;;;;;;21.23;5.85;;;16.80;99.90;;;;;;5045294;28;20037;-75
2023/10/08 09:01:41;;;;;;;23.15;6.53;;;16.80;99.90;;;;;;5046164;28;20111;-75
2023/10/08 09:04:07;;;;;;;20.92;6.57;;;16.80;99.90;;;;;;5034075;28;20116;-75
2023/10/08 09:06:34;;;;;;;27.00;7.82;;;16.90;99.90;;;;;;5041779;28;20105;-75
2023/10/08 09:09:21;;;;;;;24.13;6.80;;;16.90;99.90;;;;;;5038406;28;20029;-75
2023/10/08 09:11:54;;;;;;;23.35;7.65;;;16.90;99.90;;;;;;5050679;28;20113;-76
2023/10/08 09:14:22;;;;;;;25.52;7.78;;;17.00;99.90;;;;;;5038969;28;20033;-75
2023/10/08 09:16:49;;;;;;;25.23;8.63;;;16.90;99.90;;;;;;5042271;28;20017;-75
2023/10/08 09:19:18;;;;;;;24.38;7.20;;;17.00;99.90;;;;;;5047745;28;20017;-75
2023/10/08 09:22:03;;;;;;;24.88;8.15;;;16.90;99.90;;;;;;5048849;28;20086;-75
2023/10/08 09:24:28;;;;;;;28.20;8.00;;;17.00;99.90;;;;;;5051900;28;20040;-75
2023/10/08 09:26:55;;;;;;;25.45;7.97;;;16.90;99.90;;;;;;5051168;28;20095;-74
2023/10/08 09:29:24;;;;;;;24.52;7.75;;;16.90;99.90;;;;;;5052640;28;20032;-74
2023/10/08 09:31:55;;;;;;;30.92;8.10;;;16.90;99.90;;;;;;5052403;28;20488;-75
2023/10/08 09:34:25;;;;;;;22.10;7.38;;;17.00;99.90;;;;;;5050854;28;20029;-74
2023/10/08 09:36:53;;;;;;;25.92;7.70;;;16.90;99.90;;;;;;5051784;28;20017;-75
2023/10/08 09:39:26;;;;;;;27.85;7.25;;;16.90;99.90;;;;;;5052460;28;20437;-75
2023/10/08 09:41:56;;;;;;;21.40;7.40;;;17.00;99.90;;;;;;5044433;28;20021;-75
2023/10/08 09:44:26;;;;;;;29.70;8.98;;;17.00;99.90;;;;;;5052447;28;20070;-75
2023/10/08 09:47:07;;;;;;;30.20;10.73;;;17.10;99.90;;;;;;5052692;28;20052;-76
2023/10/08 09:49:56;;;;;;;23.27;9.30;;;17.10;99.90;;;;;;5051154;28;20028;-74
2023/10/08 09:52:33;;;;;;;21.75;8.25;;;17.20;99.90;;;;;;5050268;28;20053;-75
2023/10/08 09:55:10;;;;;;;21.27;7.85;;;17.20;99.90;;;;;;5051461;28;20029;-75
2023/10/08 09:57:37;;;;;;;17.58;6.63;;;17.30;99.90;;;;;;5053805;28;20025;-74
2023/10/08 10:00:10;;;;;;;18.02;6.80;;;17.30;99.90;;;;;;5050659;28;20481;-74
2023/10/08 10:02:37;;;;;;;27.05;7.75;;;17.30;99.90;;;;;;5053648;28;20044;-74
2023/10/08 10:05:03;;;;;;;24.67;6.55;;;17.40;99.90;;;;;;5047151;28;20033;-75
2023/10/08 10:07:29;;;;;;;20.42;6.32;;;17.50;99.90;;;;;;5051640;28;20021;-75
2023/10/08 10:09:55;;;;;;;23.98;6.57;;;17.50;99.90;;;;;;5051546;28;20017;-75
2023/10/08 10:12:25;;;;;;;24.50;6.30;;;17.60;99.90;;;;;;5041622;28;20029;-75
2023/10/08 10:14:57;;;;;;;20.85;6.20;;;17.50;99.90;;;;;;5050892;28;20029;-75
2023/10/08 10:17:28;;;;;;;25.02;6.30;;;17.50;99.90;;;;;;5048797;28;20111;-75
2023/10/08 10:19:59;;;;;;;20.38;5.70;;;17.60;99.90;;;;;;5049421;28;20029;-74
2023/10/08 10:22:34;;;;;;;20.20;5.20;;;17.60;99.90;;;;;;5046896;28;20070;-74
2023/10/08 10:25:14;;;;;;;18.10;5.88;;;17.70;99.90;;;;;;5046157;28;20087;-75
2023/10/08 10:27:55;;;;;;;17.48;5.45;;;17.70;99.90;;;;;;5053573;28;20497;-75
2023/10/08 10:30:23;;;;;;;20.00;5.53;;;17.80;99.90;;;;;;5059145;28;20021;-75
2023/10/08 10:32:51;;;;;;;20.23;5.72;;;17.90;99.90;;;;;;5055350;28;20024;-75
2023/10/08 10:35:20;;;;;;;23.45;6.80;;;17.90;99.90;;;;;;5052538;28;20506;-74
2023/10/08 10:37:52;;;;;;;22.02;6.68;;;17.90;99.90;;;;;;5051951;28;20051;-74
2023/10/08 10:40:39;;;;;;;23.73;7.50;;;18.00;99.90;;;;;;5047435;28;20025;-75
2023/10/08 10:43:06;;;;;;;22.23;6.80;;;18.00;99.90;;;;;;5047080;28;20064;-74
2023/10/08 10:45:36;;;;;;;23.20;6.93;;;17.90;99.90;;;;;;5050216;28;20108;-75
2023/10/08 10:53:44;;;;;;;20.42;6.00;;;18.10;99.90;;;;;;5051481;28;20029;-75
2023/10/08 10:56:18;;;;;;;25.67;7.40;;;18.10;99.90;;;;;;5042331;28;20108;-75
2023/10/08 10:58:48;;;;;;;19.48;7.20;;;18.20;99.90;;;;;;5049897;28;20017;-75
2023/10/08 11:01:23;;;;;;;20.60;6.90;;;18.30;99.90;;;;;;5050914;28;20039;-74
2023/10/08 11:03:53;;;;;;;19.58;7.40;;;18.40;99.90;;;;;;5050655;28;20072;-74
2023/10/08 11:06:23;;;;;;;24.17;7.50;;;18.50;99.90;;;;;;5050606;28;20035;-74
2023/10/08 11:08:53;;;;;;;25.70;7.43;;;18.60;99.90;;;;;;5050962;28;20048;-73
2023/10/08 11:11:27;;;;;;;19.90;7.18;;;18.60;99.90;;;;;;5049714;28;20029;-75
2023/10/08 11:14:04;;;;;;;21.30;7.55;;;18.60;99.90;;;;;;5048634;28;20469;-74
2023/10/08 11:16:33;;;;;;;17.95;7.07;;;18.70;99.90;;;;;;5049591;28;20053;-75
2023/10/08 11:19:01;;;;;;;19.60;6.80;;;18.70;99.90;;;;;;5049588;28;20029;-75
2023/10/08 11:21:31;;;;;;;29.08;8.13;;;18.80;99.90;;;;;;5049338;28;20024;-75
2023/10/08 11:23:58;;;;;;;24.88;7.75;;;18.80;99.90;;;;;;5050498;28;20014;-74
2023/10/08 11:26:38;;;;;;;24.05;7.22;;;18.90;99.90;;;;;;5042445;28;20052;-74
2023/10/08 11:29:05;;;;;;;25.02;7.20;;;18.90;99.90;;;;;;5058146;28;20470;-74
2023/10/08 11:31:34;;;;;;;23.90;7.13;;;19.00;99.90;;;;;;5048899;28;20013;-75
2023/10/08 11:34:02;;;;;;;17.50;7.00;;;19.00;99.90;;;;;;5049877;28;20021;-74
2023/10/08 11:36:28;;;;;;;22.23;7.53;;;19.10;99.90;;;;;;5050614;28;20017;-74
2023/10/08 11:39:08;;;;;;;25.23;8.05;;;19.10;99.90;;;;;;5046639;28;20392;-75
2023/10/08 11:44:36;;;;;;;27.80;8.13;;;19.10;99.90;;;;;;5047052;28;20036;-75
2023/10/08 11:47:12;;;;;;;25.25;7.63;;;19.10;99.90;;;;;;5048077;28;20446;-75
2023/10/08 11:49:46;;;;;;;23.60;8.40;;;19.10;99.90;;;;;;5049233;28;20477;-75
2023/10/08 11:52:15;;;;;;;22.35;7.60;;;19.20;99.90;;;;;;5048343;28;20131;-75
2023/10/08 11:54:42;;;;;;;24.92;7.60;;;19.20;99.90;;;;;;5049133;28;20025;-74
2023/10/08 11:57:09;;;;;;;23.17;8.07;;;19.20;99.90;;;;;;5050766;28;20016;-74
2023/10/08 11:59:39;;;;;;;21.52;7.90;;;19.20;99.90;;;;;;5051432;28;21506;-74
2023/10/08 12:02:08;;;;;;;23.13;8.48;;;19.30;99.90;;;;;;5048679;28;20024;-75
2023/10/08 12:04:33;;;;;;;23.85;8.15;;;19.30;99.90;;;;;;5043352;28;20033;-75
2023/10/08 12:07:02;;;;;;;20.35;7.82;;;19.40;99.90;;;;;;5037231;28;20547;-75
2023/10/08 12:09:28;;;;;;;20.08;7.68;;;19.40;99.90;;;;;;5050266;28;20489;-74
2023/10/08 12:11:56;;;;;;;21.90;8.50;;;19.40;99.90;;;;;;5040403;28;20091;-74
2023/10/08 12:14:26;;;;;;;20.58;8.07;;;19.50;99.90;;;;;;5049967;28;20028;-74
2023/10/08 12:16:52;;;;;;;23.85;7.25;;;19.50;99.90;;;;;;5049215;28;20025;-75
2023/10/08 12:19:17;;;;;;;24.27;7.82;;;19.40;99.90;;;;;;5049568;28;20156;-75
2023/10/08 12:21:47;;;;;;;23.20;8.05;;;19.50;99.90;;;;;;5049151;28;20036;-75
2023/10/08 12:24:13;;;;;;;23.50;8.55;;;19.50;99.90;;;;;;5037794;28;20477;-75
2023/10/08 12:26:45;;;;;;;22.58;9.40;;;19.60;99.90;;;;;;5048194;28;20028;-75
2023/10/08 12:29:16;;;;;;;21.80;9.45;;;19.50;99.90;;;;;;5049169;28;20466;-75
2023/10/08 12:31:47;;;;;;;24.35;8.88;;;19.60;99.90;;;;;;5049108;28;20359;-75
2023/10/08 12:34:16;;;;;;;24.35;10.05;;;19.60;99.90;;;;;;5047216;28;20313;-74
2023/10/08 12:36:42;;;;;;;28.88;10.32;;;19.70;99.90;;;;;;5049312;28;20021;-74
2023/10/08 12:39:14;;;;;;;28.67;10.52;;;19.60;99.90;;;;;;5048819;28;20453;-74
2023/10/08 12:41:43;;;;;;;28.25;11.43;;;19.60;99.90;;;;;;5049279;28;20458;-74
2023/10/08 12:44:09;;;;;;;27.00;10.82;;;19.70;99.90;;;;;;5046971;28;20061;-75
2023/10/08 12:46:36;;;;;;;24.48;10.73;;;19.70;99.90;;;;;;5047104;28;20520;-74
2023/10/08 12:49:02;;;;;;;28.65;12.00;;;19.80;99.90;;;;;;5046941;28;20052;-74
2023/10/08 12:51:32;;;;;;;32.42;12.25;;;19.70;99.90;;;;;;5048949;28;20048;-74
2023/10/08 12:54:03;;;;;;;30.05;13.52;;;19.70;99.90;;;;;;5048493;28;20110;-74
2023/10/08 12:56:32;;;;;;;28.83;13.57;;;19.70;99.90;;;;;;5048648;28;20036;-75
2023/10/08 12:59:04;;;;;;;31.10;15.02;;;19.70;99.90;;;;;;5053111;28;20029;-75
2023/10/08 13:01:29;;;;;;;36.30;14.13;;;19.70;99.90;;;;;;5053462;28;20029;-74
2023/10/08 13:04:00;;;;;;;34.78;15.23;;;19.80;99.90;;;;;;5051942;28;20033;-74
2023/10/08 13:06:30;;;;;;;35.03;15.02;;;19.80;99.90;;;;;;5044679;28;20021;-75
2023/10/08 13:08:57;;;;;;;38.28;16.45;;;19.90;99.90;;;;;;5051124;28;20025;-74
2023/10/08 13:11:25;;;;;;;33.90;15.43;;;19.90;99.90;;;;;;5050713;28;20404;-74
2023/10/08 13:13:56;;;;;;;32.63;14.65;;;19.90;99.90;;;;;;5052293;28;20029;-74
2023/10/08 13:16:24;;;;;;;31.27;15.02;;;19.90;99.90;;;;;;5053220;28;20029;-75
2023/10/08 13:18:51;;;;;;;38.85;14.82;;;19.90;99.90;;;;;;5047124;28;20396;-75
2023/10/08 13:21:21;;;;;;;32.95;14.65;;;19.90;99.90;;;;;;5050593;28;20086;-74
2023/10/08 13:23:48;;;;;;;33.22;15.00;;;20.00;99.90;;;;;;5052669;28;20310;-74
2023/10/08 13:26:17;;;;;;;31.45;14.13;;;20.00;99.90;;;;;;5044719;28;20026;-74
2023/10/08 13:28:44;;;;;;;34.50;14.02;;;20.00;99.90;;;;;;5052149;28;20036;-74
2023/10/08 13:31:10;;;;;;;34.35;13.45;;;20.00;99.90;;;;;;5047417;28;20353;-75
2023/10/08 13:33:48;;;;;;;31.40;13.25;;;20.10;99.90;;;;;;5050839;28;20075;-74
2023/10/08 13:36:14;;;;;;;31.42;13.20;;;20.10;99.90;;;;;;5052561;28;20036;-75
2023/10/08 13:38:45;;;;;;;30.63;11.90;;;20.10;99.90;;;;;;5049309;28;20033;-74
2023/10/08 13:41:17;;;;;;;33.53;12.95;;;20.20;99.90;;;;;;5052139;28;20520;-74
2023/10/08 13:43:45;;;;;;;30.15;11.93;;;20.20;99.90;;;;;;5037854;28;20037;-74
2023/10/08 13:46:16;;;;;;;30.20;12.60;;;20.30;99.90;;;;;;5045267;28;20036;-74
2023/10/08 13:48:50;;;;;;;28.42;11.93;;;20.40;99.90;;;;;;5051409;28;20029;-74
2023/10/08 13:51:26;;;;;;;29.88;12.45;;;20.50;99.90;;;;;;5046457;28;20051;-74